createdAt,value
2023-03-17T00:01:05.494Z,5.60
2023-03-17T00:04:11.940Z,5.13
2023-03-17T00:07:17.964Z,6.47
2023-03-17T00:10:25.233Z,5.23
2023-03-17T00:13:29.078Z,4.90
2023-03-17T00:16:37.515Z,4.87
2023-03-17T00:19:41.360Z,4.90
2023-03-17T00:22:45.532Z,4.73
2023-03-17T00:25:49.870Z,4.60
2023-03-17T00:28:53.158Z,5.00
2023-03-17T00:31:59.001Z,5.03
2023-03-17T00:35:05.218Z,4.00
2023-03-17T00:38:12.355Z,4.37
2023-03-17T00:41:16.097Z,5.00
2023-03-17T00:44:20.301Z,4.37
2023-03-17T00:47:24.967Z,4.10
2023-03-17T00:50:29.939Z,3.50
2023-03-17T00:53:33.263Z,3.47
2023-03-17T00:56:37.535Z,3.40
2023-03-17T00:59:43.347Z,3.90
2023-03-17T01:02:48.834Z,4.20
2023-03-17T01:05:54.179Z,4.30
2023-03-17T01:08:57.605Z,3.63
2023-03-17T01:12:01.615Z,3.67
2023-03-17T01:15:05.076Z,3.90
2023-03-17T01:18:13.224Z,3.87
2023-03-17T01:21:16.690Z,4.27
2023-03-17T01:24:19.862Z,4.00
2023-03-17T01:27:23.097Z,3.90
2023-03-17T01:30:29.490Z,3.97
2023-03-17T01:33:35.204Z,3.60
2023-03-17T01:36:38.415Z,3.80
2023-03-17T01:39:41.961Z,3.33
2023-03-17T01:42:49.259Z,3.93
2023-03-17T01:46:27.587Z,4.10
2023-03-17T01:49:35.510Z,3.90
2023-03-17T01:52:41.564Z,3.30
2023-03-17T01:55:47.145Z,4.50
2023-03-17T01:58:53.556Z,3.03
2023-03-17T02:02:02.314Z,3.47
2023-03-17T02:05:09.394Z,4.43
2023-03-17T02:08:14.757Z,3.80
2023-03-17T02:11:17.915Z,4.20
2023-03-17T02:14:21.139Z,4.70
2023-03-17T02:17:26.426Z,4.20
2023-03-17T02:21:15.478Z,3.87
2023-03-17T02:24:32.026Z,3.97
2023-03-17T02:27:39.507Z,3.90
2023-03-17T02:30:43.170Z,4.43
2023-03-17T02:33:46.412Z,3.77
2023-03-17T02:36:49.628Z,3.47
2023-03-17T02:39:54.823Z,4.60
2023-03-17T02:42:59.437Z,4.83
2023-03-17T02:46:02.800Z,3.70
2023-03-17T02:49:06.614Z,5.47
2023-03-17T02:52:10.221Z,4.30
2023-03-17T02:55:14.857Z,4.00
2023-03-17T02:58:18.040Z,3.60
2023-03-17T03:01:21.354Z,4.67
2023-03-17T03:04:26.188Z,3.60
2023-03-17T03:07:29.443Z,3.67
2023-03-17T03:10:34.008Z,3.37
2023-03-17T03:13:37.694Z,3.53
2023-03-17T03:16:41.108Z,3.43
2023-03-17T03:19:45.003Z,3.27
2023-03-17T03:22:48.455Z,4.30
2023-03-17T03:25:53.082Z,3.77
2023-03-17T03:28:57.401Z,3.77
2023-03-17T03:32:00.852Z,4.70
2023-03-17T03:35:04.467Z,5.17
2023-03-17T03:38:07.733Z,4.23
2023-03-17T03:41:13.133Z,4.43
2023-03-17T03:44:16.372Z,3.83
2023-03-17T03:47:19.530Z,3.93
2023-03-17T03:50:24.088Z,4.60
2023-03-17T03:53:28.019Z,4.97
2023-03-17T03:56:32.673Z,4.50
2023-03-17T03:59:35.798Z,4.13
2023-03-17T04:02:39.021Z,4.50
2023-03-17T04:05:42.241Z,5.77
2023-03-17T04:08:45.878Z,4.20
2023-03-17T04:11:50.473Z,4.20
2023-03-17T04:14:53.869Z,3.97
2023-03-17T04:17:57.106Z,4.23
2023-03-17T04:21:00.616Z,3.50
2023-03-17T04:24:05.197Z,4.03
2023-03-17T04:27:10.499Z,4.50
2023-03-17T04:30:16.879Z,4.40
2023-03-17T04:33:20.395Z,3.93
2023-03-17T04:36:25.158Z,4.27
2023-03-17T04:39:29.125Z,3.60
2023-03-17T04:42:33.655Z,4.20
2023-03-17T04:45:37.718Z,4.40
2023-03-17T04:48:41.445Z,3.93
2023-03-17T04:51:44.663Z,4.63
2023-03-17T04:54:47.961Z,4.40
2023-03-17T04:57:52.515Z,4.03
2023-03-17T05:00:55.831Z,4.43
2023-03-17T05:03:59.175Z,4.70
2023-03-17T05:07:02.995Z,4.97
2023-03-17T05:10:06.971Z,5.50
2023-03-17T05:13:11.524Z,4.87
2023-03-17T05:16:14.949Z,4.90
2023-03-17T05:19:18.493Z,5.30
2023-03-17T05:22:21.719Z,5.27
2023-03-17T05:25:24.903Z,5.10
2023-03-17T05:28:29.713Z,6.23
2023-03-17T05:31:33.051Z,4.53
2023-03-17T05:34:36.290Z,5.50
2023-03-17T05:37:39.561Z,5.97
2023-03-17T05:40:43.484Z,4.93
2023-03-17T05:43:48.065Z,4.57
2023-03-17T05:46:51.347Z,4.87
2023-03-17T05:49:54.530Z,4.93
2023-03-17T05:52:57.820Z,5.60
2023-03-17T05:56:01.023Z,5.10
2023-03-17T05:59:05.815Z,4.87
2023-03-17T06:02:09.159Z,4.90
2023-03-17T06:05:12.407Z,5.57
2023-03-17T06:08:15.971Z,5.83
2023-03-17T06:11:20.717Z,4.63
2023-03-17T06:14:27.058Z,6.00
2023-03-17T06:17:30.381Z,6.57
2023-03-17T06:20:33.902Z,5.10
2023-03-17T06:23:37.285Z,6.20
2023-03-17T06:26:40.459Z,5.17
2023-03-17T06:29:45.031Z,4.93
2023-03-17T06:32:48.293Z,5.87
2023-03-17T06:35:51.785Z,6.30
2023-03-17T06:38:55.318Z,5.33
2023-03-17T06:41:58.535Z,5.40
2023-03-17T06:45:03.778Z,5.43
2023-03-17T06:48:07.930Z,9.03
2023-03-17T06:51:11.161Z,8.13
2023-03-17T06:54:14.354Z,6.30
2023-03-17T06:57:17.704Z,5.40
2023-03-17T07:00:23.898Z,5.67
2023-03-17T07:03:28.074Z,6.17
2023-03-17T07:06:31.281Z,5.07
2023-03-17T07:09:35.493Z,5.60
2023-03-17T07:12:38.739Z,6.00
2023-03-17T07:15:45.653Z,4.90
2023-03-17T07:18:48.916Z,4.93
2023-03-17T07:21:52.172Z,5.10
2023-03-17T07:24:55.369Z,5.20
2023-03-17T07:27:58.599Z,4.47
2023-03-17T07:31:03.760Z,4.07
2023-03-17T07:34:07.718Z,4.70
2023-03-17T07:37:12.251Z,4.80
2023-03-17T07:40:16.766Z,5.23
2023-03-17T07:43:20.110Z,5.57
2023-03-17T07:46:24.833Z,5.20
2023-03-17T07:49:40.826Z,4.80
2023-03-17T07:52:45.125Z,5.20
2023-03-17T07:55:48.376Z,5.17
2023-03-17T07:58:51.882Z,7.03
2023-03-17T08:01:58.157Z,6.10
2023-03-17T08:05:02.028Z,5.20
2023-03-17T08:08:06.785Z,6.40
2023-03-17T08:11:10.757Z,5.87
2023-03-17T08:14:13.958Z,6.17
2023-03-17T08:17:19.119Z,5.67
2023-03-17T08:20:22.442Z,5.70
2023-03-17T08:23:26.658Z,5.93
2023-03-17T08:26:30.178Z,6.80
2023-03-17T08:29:33.651Z,7.17
2023-03-17T08:32:38.446Z,8.00
2023-03-17T08:35:42.225Z,7.27
2023-03-17T08:38:46.233Z,7.07
2023-03-17T08:41:49.508Z,7.90
2023-03-17T08:44:52.694Z,6.63
2023-03-17T08:47:57.821Z,6.60
2023-03-17T08:51:01.137Z,7.87
2023-03-17T08:54:05.871Z,8.43
2023-03-17T08:57:09.125Z,7.93
2023-03-17T09:00:13.974Z,7.63
2023-03-17T09:03:18.589Z,8.47
2023-03-17T09:06:22.479Z,7.70
2023-03-17T09:09:25.659Z,8.50
2023-03-17T09:12:28.994Z,8.43
2023-03-17T09:15:34.196Z,7.43
2023-03-17T09:18:39.117Z,7.70
2023-03-17T09:21:42.313Z,8.17
2023-03-17T09:24:46.067Z,7.55
2023-03-17T09:27:49.359Z,7.57
2023-03-17T09:30:53.047Z,7.78
2023-03-17T09:33:57.690Z,7.15
2023-03-17T09:37:01.018Z,8.23
2023-03-17T09:40:08.462Z,7.05
2023-03-17T09:43:25.124Z,6.32
2023-03-17T09:46:40.843Z,9.65
2023-03-17T09:49:49.170Z,6.80
2023-03-17T09:52:53.340Z,8.20
2023-03-17T09:55:59.891Z,8.30
2023-03-17T09:59:08.718Z,6.25
2023-03-17T10:02:20.351Z,5.88
2023-03-17T10:05:27.793Z,6.75
2023-03-17T10:08:35.025Z,6.63
2023-03-17T10:11:42.319Z,6.45
2023-03-17T10:14:57.877Z,7.15
2023-03-17T10:18:02.557Z,7.65
2023-03-17T10:21:12.808Z,6.75
2023-03-17T10:24:16.342Z,7.20
2023-03-17T10:27:20.118Z,6.82
2023-03-17T10:30:24.649Z,6.75
2023-03-17T10:33:27.903Z,6.40
2023-03-17T10:36:38.001Z,11.87
2023-03-17T10:39:46.913Z,17.60
2023-03-17T10:42:53.672Z,8.00
2023-03-17T10:46:00.974Z,7.70
2023-03-17T10:49:09.430Z,8.10
2023-03-17T10:52:21.119Z,43.53
2023-03-17T10:55:28.078Z,11.50
2023-03-17T10:58:38.671Z,9.10
2023-03-17T11:01:45.615Z,5.82
2023-03-17T11:04:49.260Z,5.93
2023-03-17T11:07:59.118Z,5.57
2023-03-17T11:11:05.578Z,5.40
2023-03-17T11:14:13.457Z,5.20
2023-03-17T11:17:20.277Z,5.03
2023-03-17T11:20:37.410Z,5.72
2023-03-17T11:23:52.249Z,4.18
2023-03-17T11:27:01.759Z,5.18
2023-03-17T11:30:18.675Z,4.72
2023-03-17T11:33:34.810Z,3.80
2023-03-17T11:36:50.525Z,4.60
2023-03-17T11:40:04.296Z,5.13
2023-03-17T11:43:27.522Z,5.22
2023-03-17T11:46:37.025Z,4.30
2023-03-17T11:49:41.842Z,4.70
2023-03-17T11:53:00.101Z,4.63
2023-03-17T11:56:10.902Z,4.47
2023-03-17T11:59:31.518Z,4.15
2023-03-17T12:02:42.617Z,5.18
2023-03-17T12:05:50.868Z,4.93
2023-03-17T12:08:59.778Z,4.38
2023-03-17T12:12:05.507Z,5.07
2023-03-17T12:15:21.148Z,4.82
2023-03-17T12:18:30.727Z,4.80
2023-03-17T12:21:38.989Z,5.90
2023-03-17T12:24:48.708Z,5.38
2023-03-17T12:28:00.347Z,5.93
2023-03-17T12:31:07.004Z,5.82
2023-03-17T12:34:16.577Z,6.55
2023-03-17T12:37:21.469Z,7.00
2023-03-17T12:40:29.640Z,6.32
2023-03-17T12:43:50.174Z,6.50
2023-03-17T12:47:29.982Z,6.40
2023-03-17T12:51:06.431Z,6.57
2023-03-17T12:54:16.470Z,6.80
2023-03-17T12:57:22.284Z,7.05
2023-03-17T13:00:29.716Z,7.47
2023-03-17T13:03:37.093Z,6.63
2023-03-17T13:06:45.058Z,7.80
2023-03-17T13:09:50.835Z,7.57
2023-03-17T13:13:05.812Z,7.65
2023-03-17T13:16:28.989Z,6.50
2023-03-17T13:19:33.806Z,7.25
2023-03-17T13:22:39.133Z,7.15
2023-03-17T13:25:53.599Z,7.55
2023-03-17T13:29:03.592Z,6.03
2023-03-17T13:32:38.177Z,6.47
2023-03-17T13:35:44.210Z,6.22
2023-03-17T13:39:19.812Z,5.72
2023-03-17T13:42:35.699Z,5.75
2023-03-17T13:45:40.178Z,6.18
2023-03-17T13:48:44.960Z,5.67
2023-03-17T13:51:59.549Z,5.37
2023-03-17T13:55:25.725Z,5.07
2023-03-17T13:58:36.112Z,5.20
2023-03-17T14:01:44.034Z,6.00
2023-03-17T14:04:53.574Z,5.27
2023-03-17T14:08:00.095Z,4.73
2023-03-17T14:11:07.446Z,4.50
2023-03-17T14:14:32.564Z,5.20
2023-03-17T14:17:42.698Z,4.87
2023-03-17T14:20:56.493Z,4.90
2023-03-17T14:24:01.708Z,5.93
2023-03-17T14:27:08.997Z,8.37
2023-03-17T14:30:20.562Z,5.30
2023-03-17T14:33:26.610Z,4.90
2023-03-17T14:36:34.854Z,6.93
2023-03-17T14:39:46.007Z,4.50
2023-03-17T14:42:49.309Z,5.83
2023-03-17T14:45:53.868Z,5.20
2023-03-17T14:49:01.605Z,5.97
2023-03-17T14:52:06.711Z,5.10
2023-03-17T14:55:14.919Z,5.60
2023-03-17T14:58:25.407Z,5.53
2023-03-17T15:01:37.652Z,6.13
2023-03-17T15:04:52.443Z,5.20
2023-03-17T15:07:57.428Z,5.00
2023-03-17T15:11:02.072Z,5.60
2023-03-17T15:14:12.833Z,5.13
2023-03-17T15:17:19.284Z,5.33
2023-03-17T15:20:23.048Z,5.87
2023-03-17T15:23:30.833Z,5.20
2023-03-17T15:26:34.064Z,5.40
2023-03-17T15:29:37.269Z,5.30
2023-03-17T15:32:41.337Z,5.60
2023-03-17T15:35:44.566Z,6.47
2023-03-17T15:38:49.280Z,7.07
2023-03-17T15:41:52.516Z,16.60
2023-03-17T15:44:56.356Z,6.03
2023-03-17T15:47:59.609Z,6.03
2023-03-17T15:51:03.459Z,5.47
2023-03-17T15:54:08.119Z,6.00
2023-03-17T15:57:13.172Z,6.10
2023-03-17T16:00:18.481Z,5.30
2023-03-17T16:03:29.379Z,6.00
2023-03-17T16:06:32.589Z,5.80
2023-03-17T16:09:37.434Z,6.37
2023-03-17T16:12:40.611Z,7.10
2023-03-17T16:15:45.337Z,5.97
2023-03-17T16:18:51.073Z,6.23
2023-03-17T16:21:55.345Z,6.33
2023-03-17T16:24:59.971Z,6.83
2023-03-17T16:28:09.176Z,6.20
2023-03-17T16:31:21.830Z,7.30
2023-03-17T16:34:25.670Z,7.17
2023-03-17T16:37:28.950Z,5.77
2023-03-17T16:40:38.312Z,6.30
2023-03-17T16:43:44.865Z,6.03
2023-03-17T16:46:49.067Z,5.70
2023-03-17T16:49:52.281Z,5.80
2023-03-17T16:52:56.045Z,5.27
2023-03-17T16:56:01.050Z,6.17
2023-03-17T16:59:05.222Z,6.10
2023-03-17T17:02:17.368Z,8.17
2023-03-17T17:05:23.440Z,10.27
2023-03-17T17:08:26.839Z,17.53
2023-03-17T17:11:32.164Z,11.27
2023-03-17T17:14:36.288Z,8.90
2023-03-17T17:17:42.485Z,7.77
2023-03-17T17:20:48.070Z,8.70
2023-03-17T17:23:53.160Z,7.83
2023-03-17T17:26:58.506Z,11.60
2023-03-17T17:30:02.349Z,9.03
2023-03-17T17:33:07.165Z,8.67
2023-03-17T17:36:16.253Z,6.97
2023-03-17T17:39:20.563Z,7.57
2023-03-17T17:42:26.366Z,7.90
2023-03-17T17:45:33.137Z,7.40
2023-03-17T17:48:37.566Z,6.63
2023-03-17T17:51:42.269Z,6.40
2023-03-17T17:54:47.183Z,6.00
2023-03-17T17:57:55.061Z,7.20
2023-03-17T18:00:59.927Z,7.90
2023-03-17T18:04:03.982Z,8.00
2023-03-17T18:07:08.403Z,7.77
2023-03-17T18:10:18.255Z,7.33
2023-03-17T18:13:25.380Z,7.87
2023-03-17T18:16:30.069Z,8.17
2023-03-17T18:19:36.428Z,8.27
2023-03-17T18:22:41.323Z,8.40
2023-03-17T18:25:45.558Z,7.93
2023-03-17T18:28:54.429Z,8.83
2023-03-17T18:31:59.446Z,9.53
2023-03-17T18:35:07.374Z,8.37
2023-03-17T18:38:12.023Z,7.60
2023-03-17T18:41:18.481Z,7.90
2023-03-17T18:44:25.662Z,8.83
2023-03-17T18:47:30.214Z,8.77
2023-03-17T18:50:34.923Z,9.47
2023-03-17T18:53:40.837Z,9.90
2023-03-17T18:56:45.931Z,10.80
2023-03-17T18:59:51.791Z,9.00
2023-03-17T19:02:56.591Z,8.20
2023-03-17T19:06:10.373Z,9.33
2023-03-17T19:09:15.124Z,8.60
2023-03-17T19:12:19.901Z,9.17
2023-03-17T19:15:26.660Z,8.80
2023-03-17T19:18:31.634Z,8.70
2023-03-17T19:21:36.169Z,8.63
2023-03-17T19:24:41.709Z,8.20
2023-03-17T19:27:46.448Z,9.90
2023-03-17T19:30:52.848Z,10.27
2023-03-17T19:34:00.321Z,9.37
2023-03-17T19:37:05.676Z,11.37
2023-03-17T19:40:13.961Z,12.03
2023-03-17T19:43:36.768Z,10.77
2023-03-17T19:46:45.384Z,11.37
2023-03-17T19:49:49.908Z,10.00
2023-03-17T19:52:54.558Z,10.47
2023-03-17T19:56:02.242Z,11.80
2023-03-17T19:59:08.359Z,10.57
2023-03-17T20:02:17.201Z,10.47
2023-03-17T20:05:21.648Z,12.40
2023-03-17T20:08:26.924Z,12.17
2023-03-17T20:11:34.192Z,10.60
2023-03-17T20:14:38.325Z,11.37
2023-03-17T20:17:44.368Z,12.67
2023-03-17T20:21:04.539Z,11.20
2023-03-17T20:24:13.475Z,11.03
2023-03-17T20:27:18.696Z,10.90
2023-03-17T20:30:23.900Z,10.63
2023-03-17T20:33:29.937Z,10.87
2023-03-17T20:36:35.331Z,10.80
2023-03-17T20:39:41.407Z,10.27
2023-03-17T20:42:46.638Z,9.80
2023-03-17T20:45:53.605Z,10.73
2023-03-17T20:49:01.750Z,9.57
2023-03-17T20:52:12.075Z,10.50
2023-03-17T20:55:17.550Z,9.83
2023-03-17T20:58:21.965Z,11.70
2023-03-17T21:01:27.267Z,11.40
2023-03-17T21:04:33.405Z,11.13
2023-03-17T21:07:37.780Z,9.67
2023-03-17T21:10:43.103Z,10.70
2023-03-17T21:13:47.974Z,11.17
2023-03-17T21:16:53.291Z,10.50
2023-03-17T21:19:58.485Z,11.30
2023-03-17T21:23:04.660Z,10.57
2023-03-17T21:26:09.776Z,10.10
2023-03-17T21:29:13.762Z,10.30
2023-03-17T21:32:17.872Z,10.33
2023-03-17T21:35:25.022Z,11.30
2023-03-17T21:38:29.717Z,11.17
2023-03-17T21:41:36.777Z,10.60
2023-03-17T21:44:40.565Z,10.03
2023-03-17T21:47:44.154Z,10.10
2023-03-17T21:50:50.071Z,9.80
2023-03-17T21:53:54.268Z,10.23
2023-03-17T21:56:58.560Z,8.60
2023-03-17T22:00:02.144Z,10.07
2023-03-17T22:03:06.231Z,9.57
2023-03-17T22:06:11.649Z,8.53
2023-03-17T22:09:16.507Z,8.00
2023-03-17T22:12:22.063Z,10.33
2023-03-17T22:15:25.447Z,10.60
2023-03-17T22:18:28.773Z,9.50
2023-03-17T22:21:33.905Z,9.13
2023-03-17T22:24:38.082Z,9.90
2023-03-17T22:27:41.301Z,10.50
2023-03-17T22:30:44.669Z,8.67
2023-03-17T22:33:48.872Z,9.23
2023-03-17T22:36:53.469Z,9.60
2023-03-17T22:40:02.297Z,11.80
2023-03-17T22:43:05.648Z,13.40
2023-03-17T22:46:09.338Z,11.60
2023-03-17T22:49:12.993Z,9.03
2023-03-17T22:52:17.572Z,10.70
2023-03-17T22:55:20.865Z,10.47
2023-03-17T22:58:24.068Z,9.40
2023-03-17T23:01:27.406Z,8.87
2023-03-17T23:04:30.651Z,9.70
2023-03-17T23:07:47.791Z,9.20
2023-03-17T23:10:53.624Z,10.00
2023-03-17T23:13:56.918Z,9.50
2023-03-17T23:17:00.164Z,9.47
2023-03-17T23:20:05.558Z,9.70
2023-03-17T23:23:11.561Z,9.13
2023-03-17T23:26:14.751Z,9.20
2023-03-17T23:29:18.066Z,9.70
2023-03-17T23:32:21.208Z,10.17
2023-03-17T23:35:25.261Z,9.60
2023-03-17T23:38:29.866Z,9.17
2023-03-17T23:41:33.209Z,9.13
2023-03-17T23:44:36.420Z,9.63
2023-03-17T23:47:40.084Z,8.93
2023-03-17T23:50:44.188Z,9.97
2023-03-17T23:53:49.241Z,9.07
2023-03-17T23:56:52.683Z,9.97
2023-03-17T23:59:57.204Z,9.90
